createdAt,value
2022-12-18T00:01:26.291Z,2.10
2022-12-18T00:03:55.942Z,2.10
2022-12-18T00:06:26.072Z,2.00
2022-12-18T00:08:53.881Z,2.00
2022-12-18T00:11:24.444Z,1.90
2022-12-18T00:13:52.887Z,1.80
2022-12-18T00:16:23.402Z,1.70
2022-12-18T00:18:53.707Z,1.60
2022-12-18T00:21:22.097Z,1.60
2022-12-18T00:23:50.818Z,1.50
2022-12-18T00:26:24.075Z,1.40
2022-12-18T00:28:56.725Z,1.30
2022-12-18T00:31:25.574Z,1.30
2022-12-18T00:33:58.064Z,1.30
2022-12-18T00:36:28.871Z,1.20
2022-12-18T00:38:57.285Z,1.20
2022-12-18T00:41:43.814Z,1.10
2022-12-18T00:44:16.021Z,1.10
2022-12-18T00:46:44.066Z,1.10
2022-12-18T00:49:11.344Z,1.00
2022-12-18T00:51:38.735Z,1.00
2022-12-18T00:54:06.116Z,0.90
2022-12-18T00:56:33.717Z,0.90
2022-12-18T00:59:01.107Z,0.90
2022-12-18T01:01:29.489Z,0.80
2022-12-18T01:04:02.071Z,0.80
2022-12-18T01:06:30.191Z,0.70
2022-12-18T01:08:57.830Z,0.60
2022-12-18T01:11:25.591Z,0.60
2022-12-18T01:13:54.569Z,0.60
2022-12-18T01:16:23.879Z,0.50
2022-12-18T01:18:55.549Z,0.50
2022-12-18T01:21:24.127Z,0.40
2022-12-18T01:23:56.420Z,0.40
2022-12-18T01:26:26.553Z,0.30
2022-12-18T01:28:55.740Z,0.30
2022-12-18T01:31:25.514Z,0.30
2022-12-18T01:33:53.970Z,0.20
2022-12-18T01:36:30.395Z,0.20
2022-12-18T01:39:00.569Z,0.20
2022-12-18T01:41:53.365Z,0.10
2022-12-18T01:45:02.381Z,0.10
2022-12-18T01:47:52.437Z,0.10
2022-12-18T01:50:29.534Z,0.00
2022-12-18T01:53:03.345Z,0.00
2022-12-18T01:55:34.589Z,0.00
2022-12-18T01:58:02.536Z,-0.10
2022-12-18T02:00:30.434Z,-0.10
2022-12-18T02:02:58.238Z,-0.10
2022-12-18T02:06:10.976Z,-0.10
2022-12-18T02:08:49.506Z,-0.20
2022-12-18T02:11:28.377Z,-0.20
2022-12-18T02:14:10.062Z,-0.20
2022-12-18T02:16:47.924Z,-0.30
2022-12-18T02:19:46.629Z,-0.30
2022-12-18T02:22:37.876Z,-0.30
2022-12-18T02:25:33.553Z,-0.40
2022-12-18T02:28:05.151Z,-0.40
2022-12-18T02:30:37.176Z,-0.40
2022-12-18T02:33:07.429Z,-0.40
2022-12-18T02:35:36.389Z,-0.40
2022-12-18T02:38:05.667Z,-0.40
2022-12-18T02:40:38.397Z,-0.40
2022-12-18T02:43:15.525Z,-0.50
2022-12-18T02:45:58.725Z,-0.50
2022-12-18T02:48:34.100Z,-0.50
2022-12-18T02:51:04.528Z,-0.60
2022-12-18T02:53:37.699Z,-0.60
2022-12-18T02:56:18.538Z,-0.60
2022-12-18T02:59:01.209Z,-0.60
2022-12-18T03:01:52.248Z,-0.60
2022-12-18T03:04:35.189Z,-0.60
2022-12-18T03:07:09.761Z,-0.60
2022-12-18T03:09:48.703Z,-0.60
2022-12-18T03:12:25.605Z,-0.70
2022-12-18T03:15:17.605Z,-0.70
2022-12-18T03:17:53.260Z,-0.70
2022-12-18T03:20:23.510Z,-0.70
2022-12-18T03:22:59.166Z,-0.80
2022-12-18T03:25:27.859Z,-0.80
2022-12-18T03:27:59.888Z,-0.80
2022-12-18T03:30:29.543Z,-0.90
2022-12-18T03:33:06.698Z,-0.90
2022-12-18T03:35:38.606Z,-0.90
2022-12-18T03:38:07.137Z,-0.90
2022-12-18T03:41:07.649Z,-1.00
2022-12-18T03:44:05.021Z,-0.90
2022-12-18T03:46:59.638Z,-0.90
2022-12-18T03:49:49.432Z,-0.90
2022-12-18T03:53:01.516Z,-0.90
2022-12-18T03:55:33.601Z,-0.90
2022-12-18T03:58:05.921Z,-0.90
2022-12-18T04:00:44.526Z,-1.00
2022-12-18T04:03:14.848Z,-1.00
2022-12-18T04:05:51.317Z,-1.00
2022-12-18T04:08:22.397Z,-1.00
2022-12-18T04:11:01.289Z,-1.00
2022-12-18T04:13:37.999Z,-1.00
2022-12-18T04:16:10.608Z,-1.10
2022-12-18T04:18:42.334Z,-1.10
2022-12-18T04:21:11.283Z,-1.10
2022-12-18T04:23:39.120Z,-1.10
2022-12-18T04:26:07.314Z,-1.10
2022-12-18T04:28:44.692Z,-1.10
2022-12-18T04:31:14.026Z,-1.10
2022-12-18T04:33:42.409Z,-1.10
2022-12-18T04:36:10.987Z,-1.10
2022-12-18T04:38:39.222Z,-1.10
2022-12-18T04:41:11.250Z,-1.20
2022-12-18T04:43:38.981Z,-1.20
2022-12-18T04:46:09.058Z,-1.10
2022-12-18T04:48:37.541Z,-1.10
2022-12-18T04:51:05.999Z,-1.10
2022-12-18T04:53:34.127Z,-1.20
2022-12-18T04:56:13.290Z,-1.20
2022-12-18T04:58:42.436Z,-1.20
2022-12-18T05:01:10.683Z,-1.20
2022-12-18T05:03:38.899Z,-1.30
2022-12-18T05:06:07.511Z,-1.30
2022-12-18T05:08:35.529Z,-1.30
2022-12-18T05:11:04.369Z,-1.40
2022-12-18T05:13:36.470Z,-1.40
2022-12-18T05:16:04.737Z,-1.40
2022-12-18T05:18:32.619Z,-1.40
2022-12-18T05:21:00.078Z,-1.40
2022-12-18T05:23:27.913Z,-1.50
2022-12-18T05:26:01.222Z,-1.50
2022-12-18T05:28:31.104Z,-1.50
2022-12-18T05:31:01.074Z,-1.50
2022-12-18T05:33:32.199Z,-1.60
2022-12-18T05:36:05.565Z,-1.60
2022-12-18T05:38:34.480Z,-1.70
2022-12-18T05:41:02.229Z,-1.70
2022-12-18T05:43:30.238Z,-1.70
2022-12-18T05:45:58.634Z,-1.70
2022-12-18T05:48:26.371Z,-1.70
2022-12-18T05:50:53.777Z,-1.80
2022-12-18T05:53:22.115Z,-1.90
2022-12-18T05:55:49.746Z,-1.90
2022-12-18T05:58:17.294Z,-1.90
2022-12-18T06:00:46.951Z,-1.90
2022-12-18T06:03:14.898Z,-1.90
2022-12-18T06:05:44.545Z,-1.90
2022-12-18T06:08:13.089Z,-1.80
2022-12-18T06:10:41.539Z,-1.90
2022-12-18T06:13:09.356Z,-1.80
2022-12-18T06:15:40.028Z,-1.80
2022-12-18T06:18:07.738Z,-1.80
2022-12-18T06:20:37.624Z,-1.80
2022-12-18T06:23:04.899Z,-1.80
2022-12-18T06:25:32.362Z,-1.90
2022-12-18T06:28:00.149Z,-1.90
2022-12-18T06:30:27.386Z,-1.90
2022-12-18T06:32:56.889Z,-1.90
2022-12-18T06:35:24.796Z,-1.90
2022-12-18T06:37:52.123Z,-1.90
2022-12-18T06:40:19.846Z,-1.90
2022-12-18T06:42:47.813Z,-1.90
2022-12-18T06:45:15.103Z,-1.90
2022-12-18T06:47:42.741Z,-1.90
2022-12-18T06:50:10.440Z,-1.90
2022-12-18T06:52:38.241Z,-1.90
2022-12-18T06:55:06.545Z,-1.90
2022-12-18T06:57:33.795Z,-2.00
2022-12-18T07:00:01.533Z,-2.00
2022-12-18T07:02:28.891Z,-1.90
2022-12-18T07:04:56.290Z,-1.90
2022-12-18T07:07:23.586Z,-1.90
2022-12-18T07:09:51.763Z,-1.90
2022-12-18T07:12:19.448Z,-1.90
2022-12-18T07:14:46.742Z,-1.90
2022-12-18T07:17:14.352Z,-1.80
2022-12-18T07:19:41.794Z,-1.80
2022-12-18T07:22:09.388Z,-1.70
2022-12-18T07:24:36.780Z,-1.70
2022-12-18T07:27:04.189Z,-1.60
2022-12-18T07:29:32.149Z,-1.60
2022-12-18T07:31:59.797Z,-1.40
2022-12-18T07:34:27.121Z,-1.30
2022-12-18T07:36:54.823Z,-1.20
2022-12-18T07:39:22.110Z,-0.90
2022-12-18T07:42:09.387Z,-0.70
2022-12-18T07:44:37.383Z,-0.50
2022-12-18T07:47:07.760Z,-0.20
2022-12-18T07:49:38.978Z,0.00
2022-12-18T07:52:06.268Z,0.20
2022-12-18T07:54:34.802Z,0.40
2022-12-18T07:57:02.981Z,0.60
2022-12-18T07:59:30.231Z,0.80
2022-12-18T08:01:57.680Z,1.00
2022-12-18T08:04:25.356Z,1.10
2022-12-18T08:06:52.930Z,1.20
2022-12-18T08:09:20.313Z,1.40
2022-12-18T08:11:47.931Z,1.50
2022-12-18T08:14:15.691Z,1.60
2022-12-18T08:16:43.246Z,1.70
2022-12-18T08:19:13.912Z,1.90
2022-12-18T08:21:41.393Z,2.10
2022-12-18T08:24:10.439Z,2.30
2022-12-18T08:26:38.173Z,2.50
2022-12-18T08:29:05.759Z,2.60
2022-12-18T08:31:35.222Z,2.70
2022-12-18T08:34:03.217Z,2.80
2022-12-18T08:36:30.766Z,2.90
2022-12-18T08:38:58.747Z,3.10
2022-12-18T08:41:26.541Z,3.20
2022-12-18T08:44:12.434Z,3.20
2022-12-18T08:46:43.177Z,3.20
2022-12-18T08:49:12.119Z,3.30
2022-12-18T08:51:40.008Z,3.40
2022-12-18T08:54:08.074Z,3.60
2022-12-18T08:56:35.613Z,3.80
2022-12-18T08:59:03.381Z,3.90
2022-12-18T09:01:31.130Z,3.90
2022-12-18T09:03:59.360Z,4.10
2022-12-18T09:06:27.686Z,4.20
2022-12-18T09:08:56.081Z,4.20
2022-12-18T09:11:26.142Z,4.20
2022-12-18T09:13:55.059Z,4.20
2022-12-18T09:16:27.401Z,4.20
2022-12-18T09:19:00.721Z,4.10
2022-12-18T09:21:31.341Z,4.10
2022-12-18T09:24:00.524Z,4.00
2022-12-18T09:26:28.750Z,4.00
2022-12-18T09:28:56.847Z,3.90
2022-12-18T09:31:26.091Z,3.90
2022-12-18T09:33:55.769Z,3.70
2022-12-18T09:36:23.050Z,3.70
2022-12-18T09:38:51.262Z,3.70
2022-12-18T09:41:56.961Z,3.70
2022-12-18T09:44:47.558Z,3.70
2022-12-18T09:47:35.315Z,3.60
2022-12-18T09:50:11.632Z,3.50
2022-12-18T09:52:49.457Z,3.40
2022-12-18T09:55:36.864Z,3.30
2022-12-18T09:58:36.313Z,3.20
2022-12-18T10:01:10.863Z,3.10
2022-12-18T10:03:38.623Z,3.00
2022-12-18T10:06:16.524Z,3.00
2022-12-18T10:08:47.530Z,3.00
2022-12-18T10:11:49.095Z,3.10
2022-12-18T10:14:43.028Z,3.20
2022-12-18T10:17:35.538Z,3.20
2022-12-18T10:20:35.523Z,3.30
2022-12-18T10:23:30.673Z,3.40
2022-12-18T10:26:08.126Z,3.40
2022-12-18T10:28:41.509Z,3.50
2022-12-18T10:31:19.257Z,3.50
2022-12-18T10:33:46.987Z,3.60
2022-12-18T10:36:14.738Z,3.80
2022-12-18T10:38:42.890Z,3.90
2022-12-18T10:41:21.780Z,3.90
2022-12-18T10:43:50.020Z,3.90
2022-12-18T10:46:21.105Z,4.00
2022-12-18T10:48:48.408Z,4.10
2022-12-18T10:51:34.765Z,4.10
2022-12-18T10:54:08.008Z,4.20
2022-12-18T10:56:38.480Z,4.20
2022-12-18T10:59:13.017Z,4.20
2022-12-18T11:01:52.846Z,4.00
2022-12-18T11:04:29.064Z,3.80
2022-12-18T11:07:08.533Z,3.70
2022-12-18T11:09:40.752Z,3.70
2022-12-18T11:12:18.870Z,3.70
2022-12-18T11:14:54.685Z,3.70
2022-12-18T11:17:33.072Z,3.60
2022-12-18T11:20:19.765Z,3.60
2022-12-18T11:23:04.133Z,3.60
2022-12-18T11:25:35.009Z,3.60
2022-12-18T11:28:24.416Z,3.70
2022-12-18T11:31:21.887Z,3.80
2022-12-18T11:34:29.569Z,3.80
2022-12-18T11:37:00.638Z,3.70
2022-12-18T11:39:39.773Z,3.60
2022-12-18T11:42:20.968Z,3.40
2022-12-18T11:44:57.318Z,3.20
2022-12-18T11:47:55.302Z,3.20
2022-12-18T11:50:27.572Z,3.20
2022-12-18T11:52:59.288Z,3.30
2022-12-18T11:55:57.268Z,3.40
2022-12-18T11:58:49.045Z,3.50
2022-12-18T12:01:52.067Z,3.60
2022-12-18T12:04:41.169Z,3.60
2022-12-18T12:07:20.983Z,3.60
2022-12-18T12:10:17.833Z,3.50
2022-12-18T12:12:58.055Z,3.40
2022-12-18T12:15:46.362Z,3.30
2022-12-18T12:18:32.588Z,3.20
2022-12-18T12:21:20.470Z,3.10
2022-12-18T12:24:38.699Z,3.00
2022-12-18T12:27:06.093Z,2.90
2022-12-18T12:29:46.154Z,2.70
2022-12-18T12:32:25.861Z,2.60
2022-12-18T12:35:00.275Z,2.50
2022-12-18T12:37:36.129Z,2.40
2022-12-18T12:40:15.312Z,2.50
2022-12-18T12:43:13.677Z,2.50
2022-12-18T12:45:48.405Z,2.50
2022-12-18T12:48:41.434Z,2.60
2022-12-18T12:51:39.960Z,2.50
2022-12-18T12:54:17.374Z,2.50
2022-12-18T12:56:52.401Z,2.40
2022-12-18T12:59:47.075Z,2.40
2022-12-18T13:02:17.457Z,2.40
2022-12-18T13:04:57.575Z,2.40
2022-12-18T13:07:33.674Z,2.30
2022-12-18T13:10:19.205Z,2.30
2022-12-18T13:13:10.983Z,2.40
2022-12-18T13:15:47.040Z,2.20
2022-12-18T13:18:16.290Z,2.30
2022-12-18T13:20:55.316Z,2.30
2022-12-18T13:23:40.291Z,2.30
2022-12-18T13:26:28.169Z,2.20
2022-12-18T13:28:58.242Z,2.20
2022-12-18T13:31:41.695Z,2.10
2022-12-18T13:34:28.387Z,2.00
2022-12-18T13:37:18.045Z,2.00
2022-12-18T13:39:45.522Z,2.10
2022-12-18T13:42:36.003Z,2.10
2022-12-18T13:45:23.460Z,2.00
2022-12-18T13:47:51.503Z,2.10
2022-12-18T13:50:35.433Z,2.10
2022-12-18T13:53:05.653Z,2.10
2022-12-18T13:55:33.561Z,2.10
2022-12-18T13:58:07.349Z,2.10
2022-12-18T14:00:38.134Z,2.10
2022-12-18T14:03:22.710Z,2.00
2022-12-18T14:06:04.293Z,2.00
2022-12-18T14:08:40.643Z,1.90
2022-12-18T14:11:19.069Z,1.80
2022-12-18T14:13:47.748Z,1.80
2022-12-18T14:16:17.994Z,1.80
2022-12-18T14:18:56.916Z,1.80
2022-12-18T14:21:39.859Z,1.70
2022-12-18T14:24:19.711Z,1.70
2022-12-18T14:27:08.513Z,1.70
2022-12-18T14:29:36.527Z,1.60
2022-12-18T14:32:19.420Z,1.70
2022-12-18T14:34:48.242Z,1.60
2022-12-18T14:37:18.945Z,1.60
2022-12-18T14:40:04.400Z,1.60
2022-12-18T14:42:34.959Z,1.50
2022-12-18T14:45:41.525Z,1.50
2022-12-18T14:48:19.698Z,1.60
2022-12-18T14:51:06.025Z,1.60
2022-12-18T14:53:40.329Z,1.60
2022-12-18T14:56:23.182Z,1.50
2022-12-18T14:59:05.635Z,1.50
2022-12-18T15:01:38.459Z,1.50
2022-12-18T15:04:23.751Z,1.40
2022-12-18T15:07:10.647Z,1.40
2022-12-18T15:09:39.640Z,1.40
2022-12-18T15:12:25.598Z,1.60
2022-12-18T15:14:52.862Z,1.60
2022-12-18T15:17:25.806Z,1.60
2022-12-18T15:20:01.513Z,1.60
2022-12-18T15:22:30.511Z,1.60
2022-12-18T15:24:59.391Z,1.60
2022-12-18T15:27:36.881Z,1.60
2022-12-18T15:30:26.069Z,1.60
2022-12-18T15:33:14.096Z,1.70
2022-12-18T15:35:46.848Z,1.70
2022-12-18T15:38:14.554Z,1.70
2022-12-18T15:40:41.978Z,1.70
2022-12-18T15:43:29.208Z,1.70
2022-12-18T15:45:56.870Z,1.80
2022-12-18T15:48:24.811Z,1.80
2022-12-18T15:50:55.055Z,1.80
2022-12-18T15:53:23.263Z,1.80
2022-12-18T15:56:09.469Z,1.80
2022-12-18T15:58:38.536Z,1.80
2022-12-18T16:01:10.297Z,1.80
2022-12-18T16:03:38.751Z,1.90
2022-12-18T16:06:06.669Z,1.90
2022-12-18T16:08:34.351Z,1.90
2022-12-18T16:11:02.766Z,2.00
2022-12-18T16:13:30.256Z,2.00
2022-12-18T16:15:57.746Z,2.00
2022-12-18T16:18:27.409Z,2.00
2022-12-18T16:20:54.785Z,2.00
2022-12-18T16:23:22.139Z,2.10
2022-12-18T16:25:49.495Z,2.10
2022-12-18T16:28:16.783Z,2.10
2022-12-18T16:30:44.786Z,2.00
2022-12-18T16:33:13.376Z,2.00
2022-12-18T16:35:41.036Z,2.00
2022-12-18T16:38:08.438Z,2.00
2022-12-18T16:40:55.803Z,2.00
2022-12-18T16:43:23.282Z,2.00
2022-12-18T16:45:50.631Z,2.00
2022-12-18T16:48:19.379Z,2.00
2022-12-18T16:50:46.779Z,2.00
2022-12-18T16:53:14.326Z,2.00
2022-12-18T16:55:41.704Z,2.00
2022-12-18T16:58:09.008Z,2.00
2022-12-18T17:00:39.307Z,2.10
2022-12-18T17:03:06.928Z,2.10
2022-12-18T17:05:35.357Z,2.10
2022-12-18T17:08:02.668Z,2.20
2022-12-18T17:10:29.954Z,2.30
2022-12-18T17:12:57.273Z,2.30
2022-12-18T17:15:24.683Z,2.20
2022-12-18T17:17:52.141Z,2.30
2022-12-18T17:20:19.471Z,2.30
2022-12-18T17:22:47.050Z,2.40
2022-12-18T17:25:14.450Z,2.40
2022-12-18T17:27:42.088Z,2.40
2022-12-18T17:30:10.494Z,2.40
2022-12-18T17:32:37.905Z,2.40
2022-12-18T17:35:07.306Z,2.40
2022-12-18T17:37:36.474Z,2.40
2022-12-18T17:40:04.345Z,2.40
2022-12-18T17:42:31.941Z,2.40
2022-12-18T17:44:59.377Z,2.40
2022-12-18T17:47:26.653Z,2.40
2022-12-18T17:49:53.955Z,2.40
2022-12-18T17:52:23.035Z,2.40
2022-12-18T17:54:50.580Z,2.40
2022-12-18T17:57:18.714Z,2.50
2022-12-18T17:59:46.027Z,2.50
2022-12-18T18:02:13.706Z,2.50
2022-12-18T18:04:41.445Z,2.50
2022-12-18T18:07:09.719Z,2.50
2022-12-18T18:09:37.087Z,2.50
2022-12-18T18:12:23.137Z,2.60
2022-12-18T18:14:50.665Z,2.50
2022-12-18T18:17:19.136Z,2.50
2022-12-18T18:19:46.818Z,2.50
2022-12-18T18:22:17.094Z,2.50
2022-12-18T18:24:46.961Z,2.40
2022-12-18T18:27:14.996Z,2.40
2022-12-18T18:29:42.534Z,2.40
2022-12-18T18:32:10.269Z,2.40
2022-12-18T18:34:40.531Z,2.40
2022-12-18T18:37:09.107Z,2.40
2022-12-18T18:39:36.727Z,2.40
2022-12-18T18:42:04.324Z,2.50
2022-12-18T18:44:31.854Z,2.50
2022-12-18T18:46:59.856Z,2.50
2022-12-18T18:49:28.945Z,2.50
2022-12-18T18:51:59.262Z,2.60
2022-12-18T18:54:26.785Z,2.60
2022-12-18T18:59:42.235Z,2.60
2022-12-18T19:02:15.747Z,2.60
2022-12-18T19:04:46.126Z,2.60
2022-12-18T19:07:29.888Z,2.60
2022-12-18T19:10:04.047Z,2.60
2022-12-18T19:12:51.767Z,2.60
2022-12-18T19:15:19.444Z,2.60
2022-12-18T19:17:47.564Z,2.60
2022-12-18T19:20:16.837Z,2.60
2022-12-18T19:22:47.949Z,2.60
2022-12-18T19:25:32.291Z,2.60
2022-12-18T19:28:07.796Z,2.60
2022-12-18T19:30:42.879Z,2.60
2022-12-18T19:33:41.786Z,2.60
2022-12-18T19:35:58.387Z,2.60
2022-12-18T19:38:26.087Z,2.60
2022-12-18T19:40:54.968Z,2.60
2022-12-18T19:43:23.044Z,2.60
2022-12-18T19:45:55.543Z,2.60
2022-12-18T19:48:22.944Z,2.60
2022-12-18T19:50:50.401Z,2.60
2022-12-18T19:53:18.089Z,2.60
2022-12-18T19:55:45.675Z,2.60
2022-12-18T19:58:15.084Z,2.60
2022-12-18T20:00:42.400Z,2.60
2022-12-18T20:03:21.300Z,2.50
2022-12-18T20:05:52.899Z,2.50
2022-12-18T20:08:20.533Z,2.50
2022-12-18T20:10:49.123Z,2.50
2022-12-18T20:13:17.105Z,2.60
2022-12-18T20:15:45.448Z,2.60
2022-12-18T20:18:13.053Z,2.60
2022-12-18T20:20:40.835Z,2.60
2022-12-18T20:23:08.236Z,2.50
2022-12-18T20:25:35.831Z,2.50
2022-12-18T20:28:03.107Z,2.50
2022-12-18T20:30:30.705Z,2.50
2022-12-18T20:32:58.189Z,2.50
2022-12-18T20:35:28.144Z,2.50
2022-12-18T20:37:56.881Z,2.50
2022-12-18T20:40:25.165Z,2.50
2022-12-18T20:42:52.702Z,2.50
2022-12-18T20:45:20.384Z,2.50
2022-12-18T20:47:47.897Z,2.50
2022-12-18T20:50:15.531Z,2.40
2022-12-18T20:52:43.267Z,2.40
2022-12-18T20:55:10.772Z,2.40
2022-12-18T20:57:39.352Z,2.30
2022-12-18T21:00:07.823Z,2.30
2022-12-18T21:02:35.989Z,2.20
2022-12-18T21:05:03.598Z,2.20
2022-12-18T21:07:30.946Z,2.10
2022-12-18T21:09:58.330Z,2.00
2022-12-18T21:12:33.448Z,1.90
2022-12-18T21:15:09.860Z,1.80
2022-12-18T21:17:37.436Z,1.70
2022-12-18T21:20:11.679Z,1.70
2022-12-18T21:22:44.980Z,1.60
2022-12-18T21:25:12.271Z,1.50
2022-12-18T21:27:39.700Z,1.50
2022-12-18T21:30:07.972Z,1.40
2022-12-18T21:32:35.990Z,1.30
2022-12-18T21:35:03.579Z,1.30
2022-12-18T21:37:30.883Z,1.30
2022-12-18T21:39:58.273Z,1.30
2022-12-18T21:42:44.056Z,1.30
2022-12-18T21:45:12.275Z,1.20
2022-12-18T21:47:39.894Z,1.20
2022-12-18T21:50:07.615Z,1.20
2022-12-18T21:52:35.215Z,1.20
2022-12-18T21:55:09.068Z,1.10
2022-12-18T21:57:40.639Z,1.10
2022-12-18T22:00:19.191Z,1.10
2022-12-18T22:02:48.723Z,1.10
2022-12-18T22:05:35.795Z,1.10
2022-12-18T22:08:03.442Z,1.00
2022-12-18T22:10:31.099Z,1.10
2022-12-18T22:12:58.783Z,1.00
2022-12-18T22:15:26.172Z,1.00
2022-12-18T22:17:59.949Z,1.00
2022-12-18T22:20:30.010Z,1.00
2022-12-18T22:22:58.153Z,1.00
2022-12-18T22:25:26.187Z,1.00
2022-12-18T22:28:11.942Z,1.00
2022-12-18T22:30:39.303Z,1.00
2022-12-18T22:33:06.719Z,1.00
2022-12-18T22:35:34.126Z,1.00
2022-12-18T22:38:02.071Z,1.00
2022-12-18T22:40:29.727Z,1.00
2022-12-18T22:42:57.837Z,0.90
2022-12-18T22:45:26.319Z,1.00
2022-12-18T22:47:53.835Z,0.90
2022-12-18T22:50:21.338Z,0.90
2022-12-18T22:52:48.716Z,0.90
2022-12-18T22:55:16.333Z,0.90
2022-12-18T22:57:49.195Z,0.90
2022-12-18T23:00:24.255Z,0.90
2022-12-18T23:03:00.152Z,0.90
2022-12-18T23:05:29.190Z,0.90
2022-12-18T23:07:56.529Z,0.90
2022-12-18T23:10:24.160Z,0.90
2022-12-18T23:12:51.437Z,0.90
2022-12-18T23:15:19.023Z,0.90
2022-12-18T23:17:57.118Z,0.90
2022-12-18T23:20:24.966Z,1.00
2022-12-18T23:22:53.033Z,1.00
2022-12-18T23:25:20.325Z,1.00
2022-12-18T23:27:47.851Z,1.00
2022-12-18T23:30:15.682Z,1.00
2022-12-18T23:32:42.935Z,1.00
2022-12-18T23:35:10.324Z,1.00
2022-12-18T23:37:58.755Z,1.00
2022-12-18T23:40:27.723Z,1.10
2022-12-18T23:42:55.565Z,1.00
2022-12-18T23:45:22.913Z,1.00
2022-12-18T23:47:51.360Z,1.00
2022-12-18T23:50:18.972Z,1.00
2022-12-18T23:52:49.549Z,1.00
2022-12-18T23:55:16.841Z,0.90
2022-12-18T23:57:44.243Z,1.00
